Time,TemperatureF,DewpointF,PressureIn,WindDirection,WindDirectionDegrees,WindSpeedMPH,WindSpeedGustMPH,Humidity,HourlyPrecipIn,Conditions,Clouds,dailyrainin,SoftwareType,DateUTC
2014-12-20 00:02:00,21.0,18.0,-100.00,SW,225,0.0,0.0,90,0.00,,,-99.99,,2014-12-20 06:02:00,
2014-12-20 00:12:00,21.0,18.0,-100.00,SW,225,0.0,0.0,90,0.00,,,-99.99,,2014-12-20 06:12:00,
2014-12-20 00:52:00,23.0,20.0,-100.00,WNW,300,0.0,0.0,90,0.00,,,-99.99,,2014-12-20 06:52:00,
2014-12-20 01:02:00,23.0,20.0,-100.00,WNW,300,0.0,0.0,90,0.00,,,-99.99,,2014-12-20 07:02:00,
2014-12-20 01:11:00,23.0,20.0,-100.00,WNW,300,0.0,0.0,90,0.00,,,-99.99,,2014-12-20 07:11:00,
2014-12-20 01:52:00,23.0,21.0,-100.00,North,0,0.0,0.0,91,0.00,,,-99.99,,2014-12-20 07:52:00,
2014-12-20 02:02:00,23.0,21.0,-100.00,North,0,0.0,0.0,91,0.00,,,-99.99,,2014-12-20 08:02:00,
2014-12-20 02:11:00,23.0,21.0,-100.00,North,0,0.0,0.0,91,0.00,,,-99.99,,2014-12-20 08:11:00,
2014-12-20 02:52:00,24.0,22.0,-100.00,South,175,1.0,2.0,91,0.00,,,-99.99,,2014-12-20 08:52:00,
2014-12-20 03:02:00,24.0,22.0,-100.00,South,175,1.0,2.0,91,0.00,,,-99.99,,2014-12-20 09:02:00,
2014-12-20 03:12:00,24.0,22.0,-100.00,South,175,1.0,2.0,91,0.00,,,-99.99,,2014-12-20 09:12:00,
2014-12-20 03:54:00,24.0,22.0,-100.00,South,170,2.0,3.0,91,0.00,,,-99.99,,2014-12-20 09:54:00,
2014-12-20 04:03:00,24.0,22.0,-100.00,South,170,2.0,3.0,91,0.00,,,-99.99,,2014-12-20 10:03:00,
2014-12-20 04:13:00,24.0,22.0,-100.00,South,170,2.0,3.0,91,0.00,,,-99.99,,2014-12-20 10:13:00,
2014-12-20 04:53:00,25.0,22.0,-100.00,South,175,2.0,4.0,91,0.00,,,-99.99,,2014-12-20 10:53:00,
2014-12-20 05:03:00,25.0,22.0,-100.00,South,175,2.0,4.0,91,0.00,,,-99.99,,2014-12-20 11:03:00,
2014-12-20 05:12:00,25.0,22.0,-100.00,South,175,2.0,4.0,91,0.00,,,-99.99,,2014-12-20 11:12:00,
2014-12-20 05:53:00,25.0,22.0,-100.00,South,170,2.0,2.0,91,0.00,,,-99.99,,2014-12-20 11:53:00,
2014-12-20 06:05:00,25.0,22.0,-100.00,South,170,2.0,2.0,91,0.00,,,-99.99,,2014-12-20 12:05:00,
2014-12-20 06:13:00,25.0,22.0,-100.00,South,170,2.0,2.0,91,0.00,,,-99.99,,2014-12-20 12:13:00,
2014-12-20 06:52:00,25.0,23.0,-100.00,SE,125,0.0,2.0,91,0.00,,,-99.99,,2014-12-20 12:52:00,
2014-12-20 07:02:00,25.0,23.0,-100.00,SE,125,0.0,2.0,91,0.00,,,-99.99,,2014-12-20 13:02:00,
2014-12-20 07:11:00,25.0,23.0,-100.00,SE,125,0.0,2.0,91,0.00,,,-99.99,,2014-12-20 13:11:00,
2014-12-20 07:42:00,25.0,23.0,-100.00,East,95,1.0,1.0,91,0.00,,,-99.99,,2014-12-20 13:42:00,
2014-12-20 07:52:00,25.0,23.0,-100.00,East,95,1.0,1.0,91,0.00,,,-99.99,,2014-12-20 13:52:00,
2014-12-20 08:02:00,25.0,23.0,-100.00,East,95,1.0,1.0,91,0.00,,,-99.99,,2014-12-20 14:02:00,
2014-12-20 08:12:00,25.0,23.0,-100.00,East,95,1.0,1.0,91,0.00,,,-99.99,,2014-12-20 14:12:00,
2014-12-20 08:42:00,25.0,23.0,-100.00,ESE,105,0.0,1.0,91,0.00,,,-99.99,,2014-12-20 14:42:00,
2014-12-20 08:52:00,25.0,23.0,-100.00,ESE,105,0.0,1.0,91,0.00,,,-99.99,,2014-12-20 14:52:00,
2014-12-20 09:02:00,25.0,23.0,-100.00,ESE,105,0.0,1.0,91,0.00,,,-99.99,,2014-12-20 15:02:00,
2014-12-20 09:11:00,25.0,23.0,-100.00,ESE,105,0.0,1.0,91,0.00,,,-99.99,,2014-12-20 15:11:00,
2014-12-20 09:14:00,26.0,24.0,-100.00,ESE,110,2.0,4.0,91,0.00,,,-99.99,,2014-12-20 15:14:00,
2014-12-20 09:51:00,-999.0,-99.9,-100.00,ESE,110,2.0,4.0,91,0.00,,,-99.99,,2014-12-20 15:51:00,
2014-12-20 10:00:00,26.0,-99.9,-100.00,ESE,110,2.0,4.0,91,0.00,,,-99.99,,2014-12-20 16:00:00,
2014-12-20 10:10:00,-999.0,-99.9,-100.00,ESE,110,2.0,4.0,91,0.00,,,-99.99,,2014-12-20 16:10:00,
2014-12-20 10:13:00,-999.0,-99.9,-100.00,SE,130,2.0,4.0,91,0.00,,,-99.99,,2014-12-20 16:13:00,
2014-12-20 10:51:00,-999.0,-99.9,-100.00,SE,130,2.0,4.0,91,0.00,,,-99.99,,2014-12-20 16:51:00,
2014-12-20 11:00:00,-999.0,-99.9,-100.00,SE,130,2.0,4.0,91,0.00,,,-99.99,,2014-12-20 17:00:00,
2014-12-20 11:10:00,-999.0,-99.9,-100.00,SE,130,2.0,4.0,-999,0.00,,,-99.99,,2014-12-20 17:10:00,
2014-12-20 11:53:00,29.0,26.0,-100.00,SSE,150,3.0,6.0,89,0.00,,,-99.99,,2014-12-20 17:53:00,
2014-12-20 12:03:00,29.0,26.0,-100.00,SSE,150,3.0,6.0,89,0.00,,,-99.99,,2014-12-20 18:03:00,
2014-12-20 12:12:00,29.0,26.0,-100.00,SSE,150,3.0,6.0,89,0.00,,,-99.99,,2014-12-20 18:12:00,
2014-12-20 12:42:00,30.0,26.0,-100.00,SSE,150,4.0,7.0,85,0.00,,,-99.99,,2014-12-20 18:42:00,
2014-12-20 12:52:00,30.0,26.0,-100.00,SSE,150,4.0,7.0,85,0.00,,,-99.99,,2014-12-20 18:52:00,
2014-12-20 13:02:00,30.0,26.0,-100.00,SSE,150,4.0,7.0,85,0.00,,,-99.99,,2014-12-20 19:02:00,
2014-12-20 13:12:00,30.0,26.0,-100.00,SSE,150,4.0,7.0,85,0.00,,,-99.99,,2014-12-20 19:12:00,
2014-12-20 13:53:00,30.0,25.0,-100.00,SSW,195,2.0,7.0,80,0.00,,,-99.99,,2014-12-20 19:53:00,
2014-12-20 14:03:00,30.0,25.0,-100.00,SSW,195,2.0,7.0,80,0.00,,,-99.99,,2014-12-20 20:03:00,
2014-12-20 14:12:00,30.0,25.0,-100.00,SSW,195,2.0,7.0,80,0.00,,,-99.99,,2014-12-20 20:12:00,